Strona główna
Zdjęcia satelitarne 15-dni prognozyKlimatMeteorologia morska Cyklony Błyskawica LotniskoFAQ Gazetka O
Pogoda : Europa Afryka Ameryka Północna Ameryka Południowa Azja Australia-Oceania Inny
Języki Kontakt

Kraków, Polska

Balice

Szerokość geograficzna: 50-05N, Długość geograficzna: 019-48E, wysokość: 237 m


METAR: EPKK 202100Z 24007KT 9999 SCT040 13/11 Q1013
TAF: EPKK 201730Z 2018/2118 24007KT 9999 SCT020 TEMPO 2109/2118 4000 SHRA BKN015CB

czas: 23:09 (21:09 UTC)

Aktualna obserwacja pogody

Raport powstał 09 minut temu, godzina 21:00 UTC  
Wiatr 07 kt od zachodnio-południowy zachód
Temperatura 13°C
Wilgotność 88%
Ciśnienie 1013 hPa
Widzialność 10 km lub więcej
Rozproszone chmury na wysokości 4000 ft

Jednostka miary

Prognoza

Raport powstał 03 godziny i 39 minut temu, godzina 17:30 UTC  
Prognoza ważna od 20 godzina 18 UTC do 21 godzina 18 UTC
Wiatr 07 kt od zachodnio-południowy zachód
Widzialność 10 km lub więcej
Rozproszone chmury na wysokości 2000 ft
Przejściowo
od 21 godzina 09 UTC do 21 godzina 18 UTC
Widzialność 4000 m
Przerywane chmury na wysokości 1500 ft , Cumulonimbus.
przelotny opad deszczu
Informacje na tej stronie internetowej podlegają klauzuli o wyłączeniu odpowiedzialności
Pogoda : Europa Afryka Ameryka Północna Ameryka Południowa Azja Australia-Oceania Inny
Zdjęcia satelitarne 15-dni prognozyKlimatMeteorologia morska Cyklony Błyskawica LotniskoFAQ Języki Kontakt Gazetka O